sensor_id;sensor_type;location;lat;lon;timestamp;P1;durP1;ratioP1;P2;durP2;ratioP2
20154;SDS011;10238;49.556;10.956;2022-08-18T00:00:35;12.20;;;11.10;;
20154;SDS011;10238;49.556;10.956;2022-08-18T00:03:28;12.73;;;11.60;;
20154;SDS011;10238;49.556;10.956;2022-08-18T00:06:39;9.30;;;8.50;;
20154;SDS011;10238;49.556;10.956;2022-08-18T00:09:29;13.63;;;12.48;;
20154;SDS011;10238;49.556;10.956;2022-08-18T00:12:21;11.68;;;10.75;;
20154;SDS011;10238;49.556;10.956;2022-08-18T00:15:15;12.13;;;11.15;;
20154;SDS011;10238;49.556;10.956;2022-08-18T00:18:06;12.85;;;11.80;;
20154;SDS011;10238;49.556;10.956;2022-08-18T00:20:58;10.85;;;9.77;;
20154;SDS011;10238;49.556;10.956;2022-08-18T00:23:48;11.73;;;10.60;;
20154;SDS011;10238;49.556;10.956;2022-08-18T00:26:37;9.30;;;8.60;;
20154;SDS011;10238;49.556;10.956;2022-08-18T00:29:27;8.68;;;7.88;;
20154;SDS011;10238;49.556;10.956;2022-08-18T00:32:17;10.40;;;9.48;;
20154;SDS011;10238;49.556;10.956;2022-08-18T00:35:10;9.45;;;8.55;;
20154;SDS011;10238;49.556;10.956;2022-08-18T00:38:06;11.82;;;9.80;;
20154;SDS011;10238;49.556;10.956;2022-08-18T00:41:11;11.48;;;10.15;;
20154;SDS011;10238;49.556;10.956;2022-08-18T00:44:01;12.25;;;11.43;;
20154;SDS011;10238;49.556;10.956;2022-08-18T00:46:51;13.18;;;12.07;;
20154;SDS011;10238;49.556;10.956;2022-08-18T00:49:41;16.17;;;14.73;;
20154;SDS011;10238;49.556;10.956;2022-08-18T00:52:34;14.82;;;13.43;;
20154;SDS011;10238;49.556;10.956;2022-08-18T00:55:26;15.63;;;14.15;;
20154;SDS011;10238;49.556;10.956;2022-08-18T00:58:25;12.05;;;11.07;;
20154;SDS011;10238;49.556;10.956;2022-08-18T01:01:22;11.33;;;10.27;;
20154;SDS011;10238;49.556;10.956;2022-08-18T01:04:17;9.32;;;6.68;;
20154;SDS011;10238;49.556;10.956;2022-08-18T01:07:16;9.20;;;7.95;;
20154;SDS011;10238;49.556;10.956;2022-08-18T01:10:12;10.82;;;10.13;;
20154;SDS011;10238;49.556;10.956;2022-08-18T01:13:06;14.50;;;13.20;;
20154;SDS011;10238;49.556;10.956;2022-08-18T01:15:56;12.10;;;10.95;;
20154;SDS011;10238;49.556;10.956;2022-08-18T01:18:45;15.15;;;10.20;;
20154;SDS011;10238;49.556;10.956;2022-08-18T01:21:55;11.98;;;11.15;;
20154;SDS011;10238;49.556;10.956;2022-08-18T01:24:54;11.48;;;10.25;;
20154;SDS011;10238;49.556;10.956;2022-08-18T01:28:06;11.93;;;11.10;;
20154;SDS011;10238;49.556;10.956;2022-08-18T01:30:56;12.05;;;10.48;;
20154;SDS011;10238;49.556;10.956;2022-08-18T01:33:47;9.43;;;6.85;;
20154;SDS011;10238;49.556;10.956;2022-08-18T01:36:37;10.15;;;9.35;;
20154;SDS011;10238;49.556;10.956;2022-08-18T01:39:29;8.05;;;7.45;;
20154;SDS011;10238;49.556;10.956;2022-08-18T01:42:40;8.60;;;7.70;;
20154;SDS011;10238;49.556;10.956;2022-08-18T01:45:32;7.43;;;6.85;;
20154;SDS011;10238;49.556;10.956;2022-08-18T01:48:21;7.85;;;7.07;;
20154;SDS011;10238;49.556;10.956;2022-08-18T01:51:10;9.30;;;6.93;;
20154;SDS011;10238;49.556;10.956;2022-08-18T01:54:00;9.77;;;8.10;;
20154;SDS011;10238;49.556;10.956;2022-08-18T01:56:51;11.32;;;9.20;;
20154;SDS011;10238;49.556;10.956;2022-08-18T01:59:42;12.20;;;11.02;;
20154;SDS011;10238;49.556;10.956;2022-08-18T02:02:32;11.25;;;8.60;;
20154;SDS011;10238;49.556;10.956;2022-08-18T02:05:22;9.73;;;8.70;;
20154;SDS011;10238;49.556;10.956;2022-08-18T02:08:19;9.98;;;9.18;;
20154;SDS011;10238;49.556;10.956;2022-08-18T02:11:14;8.70;;;7.80;;
20154;SDS011;10238;49.556;10.956;2022-08-18T02:14:04;9.00;;;8.30;;
20154;SDS011;10238;49.556;10.956;2022-08-18T02:16:56;13.43;;;9.00;;
20154;SDS011;10238;49.556;10.956;2022-08-18T02:19:48;9.80;;;8.13;;
20154;SDS011;10238;49.556;10.956;2022-08-18T02:22:40;9.30;;;8.20;;
20154;SDS011;10238;49.556;10.956;2022-08-18T02:25:30;8.68;;;7.72;;
20154;SDS011;10238;49.556;10.956;2022-08-18T02:28:19;8.85;;;8.10;;
20154;SDS011;10238;49.556;10.956;2022-08-18T02:31:12;7.53;;;6.78;;
20154;SDS011;10238;49.556;10.956;2022-08-18T02:34:07;8.35;;;6.45;;
20154;SDS011;10238;49.556;10.956;2022-08-18T02:36:57;9.20;;;5.90;;
20154;SDS011;10238;49.556;10.956;2022-08-18T02:39:47;10.27;;;7.13;;
20154;SDS011;10238;49.556;10.956;2022-08-18T02:42:37;10.10;;;7.25;;
20154;SDS011;10238;49.556;10.956;2022-08-18T02:45:26;7.97;;;7.13;;
20154;SDS011;10238;49.556;10.956;2022-08-18T02:48:16;7.45;;;6.85;;
20154;SDS011;10238;49.556;10.956;2022-08-18T02:51:09;8.63;;;6.90;;
20154;SDS011;10238;49.556;10.956;2022-08-18T02:54:01;7.28;;;6.68;;
20154;SDS011;10238;49.556;10.956;2022-08-18T02:56:55;9.93;;;7.20;;
20154;SDS011;10238;49.556;10.956;2022-08-18T02:59:52;7.55;;;6.75;;
20154;SDS011;10238;49.556;10.956;2022-08-18T03:02:46;7.40;;;6.70;;
20154;SDS011;10238;49.556;10.956;2022-08-18T03:05:37;11.57;;;6.95;;
20154;SDS011;10238;49.556;10.956;2022-08-18T03:08:28;7.63;;;6.22;;
20154;SDS011;10238;49.556;10.956;2022-08-18T03:11:19;11.52;;;6.78;;
20154;SDS011;10238;49.556;10.956;2022-08-18T03:14:11;7.82;;;6.50;;
20154;SDS011;10238;49.556;10.956;2022-08-18T03:17:02;7.95;;;6.30;;
20154;SDS011;10238;49.556;10.956;2022-08-18T03:19:54;9.93;;;6.70;;
20154;SDS011;10238;49.556;10.956;2022-08-18T03:22:43;7.85;;;6.15;;
20154;SDS011;10238;49.556;10.956;2022-08-18T03:25:34;8.80;;;7.35;;
20154;SDS011;10238;49.556;10.956;2022-08-18T03:28:25;8.85;;;7.00;;
20154;SDS011;10238;49.556;10.956;2022-08-18T03:31:16;10.80;;;7.15;;
20154;SDS011;10238;49.556;10.956;2022-08-18T03:34:10;8.45;;;7.30;;
20154;SDS011;10238;49.556;10.956;2022-08-18T03:37:00;9.65;;;7.32;;
20154;SDS011;10238;49.556;10.956;2022-08-18T03:39:49;8.52;;;7.63;;
20154;SDS011;10238;49.556;10.956;2022-08-18T03:42:40;8.77;;;7.40;;
20154;SDS011;10238;49.556;10.956;2022-08-18T03:45:29;8.60;;;7.60;;
20154;SDS011;10238;49.556;10.956;2022-08-18T03:48:19;10.32;;;8.65;;
20154;SDS011;10238;49.556;10.956;2022-08-18T03:51:09;9.40;;;8.43;;
20154;SDS011;10238;49.556;10.956;2022-08-18T03:54:04;9.30;;;8.15;;
20154;SDS011;10238;49.556;10.956;2022-08-18T03:56:53;8.80;;;7.88;;
20154;SDS011;10238;49.556;10.956;2022-08-18T03:59:44;9.25;;;8.35;;
20154;SDS011;10238;49.556;10.956;2022-08-18T04:02:33;9.30;;;8.50;;
20154;SDS011;10238;49.556;10.956;2022-08-18T04:05:23;7.68;;;6.90;;
20154;SDS011;10238;49.556;10.956;2022-08-18T04:08:12;9.82;;;8.98;;
20154;SDS011;10238;49.556;10.956;2022-08-18T04:11:01;9.88;;;8.90;;
20154;SDS011;10238;49.556;10.956;2022-08-18T04:13:53;9.20;;;8.40;;
20154;SDS011;10238;49.556;10.956;2022-08-18T04:16:45;10.05;;;9.18;;
20154;SDS011;10238;49.556;10.956;2022-08-18T04:19:35;8.23;;;7.30;;
20154;SDS011;10238;49.556;10.956;2022-08-18T04:22:25;10.20;;;9.10;;
20154;SDS011;10238;49.556;10.956;2022-08-18T04:25:14;11.43;;;10.23;;
20154;SDS011;10238;49.556;10.956;2022-08-18T04:28:06;8.68;;;7.88;;
20154;SDS011;10238;49.556;10.956;2022-08-18T04:30:55;10.88;;;9.98;;
20154;SDS011;10238;49.556;10.956;2022-08-18T04:33:54;9.70;;;8.80;;
20154;SDS011;10238;49.556;10.956;2022-08-18T04:36:49;10.15;;;9.15;;
20154;SDS011;10238;49.556;10.956;2022-08-18T04:39:41;9.52;;;8.63;;
20154;SDS011;10238;49.556;10.956;2022-08-18T04:42:34;11.57;;;9.00;;
20154;SDS011;10238;49.556;10.956;2022-08-18T04:45:29;10.63;;;9.73;;
20154;SDS011;10238;49.556;10.956;2022-08-18T04:48:18;10.80;;;9.80;;
20154;SDS011;10238;49.556;10.956;2022-08-18T04:51:13;9.85;;;8.85;;
20154;SDS011;10238;49.556;10.956;2022-08-18T04:54:25;10.57;;;9.57;;
20154;SDS011;10238;49.556;10.956;2022-08-18T04:57:14;9.80;;;8.80;;
20154;SDS011;10238;49.556;10.956;2022-08-18T05:00:07;7.03;;;6.28;;
20154;SDS011;10238;49.556;10.956;2022-08-18T05:02:58;10.43;;;9.15;;
20154;SDS011;10238;49.556;10.956;2022-08-18T05:05:48;11.18;;;9.02;;
20154;SDS011;10238;49.556;10.956;2022-08-18T05:08:39;10.18;;;9.25;;
20154;SDS011;10238;49.556;10.956;2022-08-18T05:11:29;9.57;;;8.53;;
20154;SDS011;10238;49.556;10.956;2022-08-18T05:14:20;10.02;;;9.20;;
20154;SDS011;10238;49.556;10.956;2022-08-18T05:17:10;10.98;;;9.05;;
20154;SDS011;10238;49.556;10.956;2022-08-18T05:20:01;11.25;;;8.77;;
20154;SDS011;10238;49.556;10.956;2022-08-18T05:22:52;10.02;;;9.05;;
20154;SDS011;10238;49.556;10.956;2022-08-18T05:25:43;10.02;;;9.05;;
20154;SDS011;10238;49.556;10.956;2022-08-18T05:28:32;10.10;;;8.85;;
20154;SDS011;10238;49.556;10.956;2022-08-18T05:31:24;10.30;;;9.30;;
20154;SDS011;10238;49.556;10.956;2022-08-18T05:34:16;8.88;;;8.05;;
20154;SDS011;10238;49.556;10.956;2022-08-18T05:37:13;12.95;;;9.57;;
20154;SDS011;10238;49.556;10.956;2022-08-18T05:40:22;9.73;;;8.85;;
20154;SDS011;10238;49.556;10.956;2022-08-18T05:43:15;11.75;;;9.07;;
20154;SDS011;10238;49.556;10.956;2022-08-18T05:46:05;9.55;;;8.55;;
20154;SDS011;10238;49.556;10.956;2022-08-18T05:48:57;8.88;;;8.07;;
20154;SDS011;10238;49.556;10.956;2022-08-18T05:51:48;7.97;;;7.25;;
20154;SDS011;10238;49.556;10.956;2022-08-18T05:54:46;9.02;;;8.13;;
20154;SDS011;10238;49.556;10.956;2022-08-18T05:58:04;6.55;;;6.05;;
20154;SDS011;10238;49.556;10.956;2022-08-18T06:01:03;8.77;;;7.85;;
20154;SDS011;10238;49.556;10.956;2022-08-18T06:04:02;10.38;;;8.70;;
20154;SDS011;10238;49.556;10.956;2022-08-18T06:06:56;6.57;;;5.97;;
20154;SDS011;10238;49.556;10.956;2022-08-18T06:09:52;9.75;;;8.85;;
20154;SDS011;10238;49.556;10.956;2022-08-18T06:12:43;10.25;;;9.02;;
20154;SDS011;10238;49.556;10.956;2022-08-18T06:15:40;10.95;;;8.95;;
20154;SDS011;10238;49.556;10.956;2022-08-18T06:18:43;8.77;;;7.40;;
20154;SDS011;10238;49.556;10.956;2022-08-18T06:21:43;7.28;;;6.47;;
20154;SDS011;10238;49.556;10.956;2022-08-18T06:24:43;7.82;;;7.03;;
20154;SDS011;10238;49.556;10.956;2022-08-18T06:27:54;9.43;;;7.65;;
20154;SDS011;10238;49.556;10.956;2022-08-18T06:30:56;8.38;;;7.57;;
20154;SDS011;10238;49.556;10.956;2022-08-18T06:34:00;9.77;;;8.70;;
20154;SDS011;10238;49.556;10.956;2022-08-18T06:37:05;9.85;;;8.20;;
20154;SDS011;10238;49.556;10.956;2022-08-18T06:40:05;11.15;;;8.55;;
20154;SDS011;10238;49.556;10.956;2022-08-18T06:42:54;8.98;;;8.10;;
20154;SDS011;10238;49.556;10.956;2022-08-18T06:45:48;8.73;;;7.82;;
20154;SDS011;10238;49.556;10.956;2022-08-18T06:48:39;9.52;;;8.60;;
20154;SDS011;10238;49.556;10.956;2022-08-18T06:51:39;9.95;;;8.38;;
20154;SDS011;10238;49.556;10.956;2022-08-18T06:54:29;9.52;;;8.63;;
20154;SDS011;10238;49.556;10.956;2022-08-18T06:57:21;10.02;;;9.02;;
20154;SDS011;10238;49.556;10.956;2022-08-18T07:00:19;12.10;;;9.52;;
20154;SDS011;10238;49.556;10.956;2022-08-18T07:03:19;11.45;;;9.38;;
20154;SDS011;10238;49.556;10.956;2022-08-18T07:06:28;11.32;;;10.18;;
20154;SDS011;10238;49.556;10.956;2022-08-18T07:09:23;9.33;;;8.43;;
20154;SDS011;10238;49.556;10.956;2022-08-18T07:12:22;8.15;;;7.35;;
20154;SDS011;10238;49.556;10.956;2022-08-18T07:15:21;8.98;;;8.05;;
20154;SDS011;10238;49.556;10.956;2022-08-18T07:18:12;13.00;;;9.38;;
20154;SDS011;10238;49.556;10.956;2022-08-18T07:21:22;10.57;;;9.35;;
20154;SDS011;10238;49.556;10.956;2022-08-18T07:24:17;11.40;;;10.25;;
20154;SDS011;10238;49.556;10.956;2022-08-18T07:27:17;16.85;;;13.75;;
20154;SDS011;10238;49.556;10.956;2022-08-18T07:30:10;15.25;;;14.02;;
20154;SDS011;10238;49.556;10.956;2022-08-18T07:33:15;17.48;;;16.10;;
20154;SDS011;10238;49.556;10.956;2022-08-18T07:36:09;16.05;;;14.68;;
20154;SDS011;10238;49.556;10.956;2022-08-18T07:39:02;13.90;;;12.90;;
20154;SDS011;10238;49.556;10.956;2022-08-18T07:42:06;13.65;;;12.18;;
20154;SDS011;10238;49.556;10.956;2022-08-18T07:45:26;11.90;;;10.93;;
20154;SDS011;10238;49.556;10.956;2022-08-18T07:48:26;10.23;;;9.43;;
20154;SDS011;10238;49.556;10.956;2022-08-18T07:51:28;12.50;;;10.27;;
20154;SDS011;10238;49.556;10.956;2022-08-18T07:54:47;13.82;;;8.35;;
20154;SDS011;10238;49.556;10.956;2022-08-18T07:57:58;11.32;;;9.55;;
20154;SDS011;10238;49.556;10.956;2022-08-18T08:01:07;11.63;;;10.48;;
20154;SDS011;10238;49.556;10.956;2022-08-18T08:04:10;10.15;;;9.35;;
20154;SDS011;10238;49.556;10.956;2022-08-18T08:07:14;9.18;;;8.13;;
20154;SDS011;10238;49.556;10.956;2022-08-18T08:10:18;9.25;;;7.05;;
20154;SDS011;10238;49.556;10.956;2022-08-18T08:13:23;8.30;;;7.55;;
20154;SDS011;10238;49.556;10.956;2022-08-18T08:16:42;10.30;;;6.68;;
20154;SDS011;10238;49.556;10.956;2022-08-18T08:19:41;12.43;;;7.53;;
20154;SDS011;10238;49.556;10.956;2022-08-18T08:23:04;9.45;;;7.47;;
20154;SDS011;10238;49.556;10.956;2022-08-18T08:29:37;9.60;;;8.70;;
20154;SDS011;10238;49.556;10.956;2022-08-18T08:32:41;9.33;;;8.23;;
20154;SDS011;10238;49.556;10.956;2022-08-18T08:35:46;22.13;;;20.73;;
20154;SDS011;10238;49.556;10.956;2022-08-18T08:38:44;21.42;;;20.02;;
20154;SDS011;10238;49.556;10.956;2022-08-18T08:41:38;21.63;;;20.10;;
20154;SDS011;10238;49.556;10.956;2022-08-18T08:44:34;15.02;;;13.93;;
20154;SDS011;10238;49.556;10.956;2022-08-18T08:50:56;10.57;;;9.10;;
20154;SDS011;10238;49.556;10.956;2022-08-18T08:53:55;8.20;;;7.40;;
20154;SDS011;10238;49.556;10.956;2022-08-18T08:56:53;8.00;;;7.07;;
20154;SDS011;10238;49.556;10.956;2022-08-18T08:59:49;8.57;;;7.45;;
20154;SDS011;10238;49.556;10.956;2022-08-18T09:02:44;7.50;;;6.85;;
20154;SDS011;10238;49.556;10.956;2022-08-18T09:05:51;7.80;;;6.72;;
20154;SDS011;10238;49.556;10.956;2022-08-18T09:09:05;9.48;;;6.97;;
20154;SDS011;10238;49.556;10.956;2022-08-18T09:12:21;9.05;;;7.50;;
20154;SDS011;10238;49.556;10.956;2022-08-18T09:15:59;9.05;;;6.90;;
20154;SDS011;10238;49.556;10.956;2022-08-18T09:19:08;8.35;;;6.63;;
20154;SDS011;10238;49.556;10.956;2022-08-18T09:22:18;8.80;;;7.13;;
20154;SDS011;10238;49.556;10.956;2022-08-18T09:25:33;9.02;;;7.63;;
20154;SDS011;10238;49.556;10.956;2022-08-18T09:28:41;8.43;;;6.53;;
20154;SDS011;10238;49.556;10.956;2022-08-18T09:31:46;9.20;;;7.20;;
20154;SDS011;10238;49.556;10.956;2022-08-18T09:34:41;7.32;;;6.57;;
20154;SDS011;10238;49.556;10.956;2022-08-18T09:37:46;7.55;;;6.78;;
20154;SDS011;10238;49.556;10.956;2022-08-18T09:40:58;7.68;;;6.78;;
20154;SDS011;10238;49.556;10.956;2022-08-18T09:47:58;7.60;;;6.18;;
20154;SDS011;10238;49.556;10.956;2022-08-18T09:51:20;7.95;;;7.03;;
20154;SDS011;10238;49.556;10.956;2022-08-18T09:54:26;10.80;;;9.77;;
20154;SDS011;10238;49.556;10.956;2022-08-18T09:57:20;11.68;;;10.68;;
20154;SDS011;10238;49.556;10.956;2022-08-18T10:03:24;11.60;;;10.75;;
20154;SDS011;10238;49.556;10.956;2022-08-18T10:06:17;9.75;;;8.98;;
20154;SDS011;10238;49.556;10.956;2022-08-18T10:12:55;7.53;;;6.88;;
20154;SDS011;10238;49.556;10.956;2022-08-18T10:16:03;7.63;;;6.97;;
20154;SDS011;10238;49.556;10.956;2022-08-18T10:19:07;8.15;;;6.05;;
20154;SDS011;10238;49.556;10.956;2022-08-18T10:22:33;6.57;;;5.93;;
20154;SDS011;10238;49.556;10.956;2022-08-18T10:25:31;6.30;;;5.70;;
20154;SDS011;10238;49.556;10.956;2022-08-18T10:38:44;6.22;;;5.72;;
20154;SDS011;10238;49.556;10.956;2022-08-18T10:44:59;8.20;;;6.53;;
20154;SDS011;10238;49.556;10.956;2022-08-18T10:47:58;7.03;;;6.20;;
20154;SDS011;10238;49.556;10.956;2022-08-18T10:51:19;7.50;;;6.50;;
20154;SDS011;10238;49.556;10.956;2022-08-18T10:54:42;6.30;;;5.70;;
20154;SDS011;10238;49.556;10.956;2022-08-18T11:01:22;7.35;;;6.00;;
20154;SDS011;10238;49.556;10.956;2022-08-18T11:04:24;6.97;;;6.35;;
20154;SDS011;10238;49.556;10.956;2022-08-18T11:07:24;7.05;;;6.35;;
20154;SDS011;10238;49.556;10.956;2022-08-18T11:10:21;6.65;;;6.05;;
20154;SDS011;10238;49.556;10.956;2022-08-18T11:13:48;7.05;;;6.35;;
20154;SDS011;10238;49.556;10.956;2022-08-18T11:16:57;9.82;;;6.80;;
20154;SDS011;10238;49.556;10.956;2022-08-18T11:22:51;5.85;;;5.35;;
20154;SDS011;10238;49.556;10.956;2022-08-18T11:25:45;6.68;;;5.72;;
20154;SDS011;10238;49.556;10.956;2022-08-18T11:28:35;7.70;;;6.90;;
20154;SDS011;10238;49.556;10.956;2022-08-18T11:31:32;7.97;;;7.00;;
20154;SDS011;10238;49.556;10.956;2022-08-18T11:34:26;6.57;;;5.95;;
20154;SDS011;10238;49.556;10.956;2022-08-18T11:37:23;6.95;;;6.25;;
20154;SDS011;10238;49.556;10.956;2022-08-18T11:40:38;6.57;;;5.57;;
20154;SDS011;10238;49.556;10.956;2022-08-18T11:43:53;6.40;;;5.90;;
20154;SDS011;10238;49.556;10.956;2022-08-18T11:46:45;6.65;;;5.95;;
20154;SDS011;10238;49.556;10.956;2022-08-18T11:49:43;6.50;;;5.90;;
20154;SDS011;10238;49.556;10.956;2022-08-18T11:52:46;6.35;;;5.75;;
20154;SDS011;10238;49.556;10.956;2022-08-18T11:55:41;9.15;;;5.90;;
20154;SDS011;10238;49.556;10.956;2022-08-18T11:58:40;6.10;;;5.50;;
20154;SDS011;10238;49.556;10.956;2022-08-18T12:01:37;6.47;;;5.50;;
20154;SDS011;10238;49.556;10.956;2022-08-18T12:04:38;7.07;;;6.20;;
20154;SDS011;10238;49.556;10.956;2022-08-18T12:07:31;5.90;;;5.40;;
20154;SDS011;10238;49.556;10.956;2022-08-18T12:10:24;7.88;;;6.07;;
20154;SDS011;10238;49.556;10.956;2022-08-18T12:13:23;6.55;;;5.90;;
20154;SDS011;10238;49.556;10.956;2022-08-18T12:16:31;7.25;;;6.30;;
20154;SDS011;10238;49.556;10.956;2022-08-18T12:19:25;8.45;;;5.95;;
20154;SDS011;10238;49.556;10.956;2022-08-18T12:25:10;7.90;;;5.68;;
20154;SDS011;10238;49.556;10.956;2022-08-18T12:28:11;7.28;;;5.93;;
20154;SDS011;10238;49.556;10.956;2022-08-18T12:31:03;6.47;;;5.93;;
20154;SDS011;10238;49.556;10.956;2022-08-18T12:34:03;6.97;;;6.38;;
20154;SDS011;10238;49.556;10.956;2022-08-18T12:36:59;7.78;;;6.30;;
20154;SDS011;10238;49.556;10.956;2022-08-18T12:39:56;6.43;;;5.65;;
20154;SDS011;10238;49.556;10.956;2022-08-18T12:45:37;6.75;;;5.97;;
20154;SDS011;10238;49.556;10.956;2022-08-18T12:48:29;6.05;;;5.55;;
20154;SDS011;10238;49.556;10.956;2022-08-18T12:51:20;7.30;;;5.78;;
20154;SDS011;10238;49.556;10.956;2022-08-18T12:54:16;7.70;;;5.63;;
20154;SDS011;10238;49.556;10.956;2022-08-18T12:57:07;9.05;;;5.88;;
20154;SDS011;10238;49.556;10.956;2022-08-18T13:00:25;6.85;;;6.18;;
20154;SDS011;10238;49.556;10.956;2022-08-18T13:03:15;6.38;;;5.78;;
20154;SDS011;10238;49.556;10.956;2022-08-18T13:06:06;7.72;;;6.15;;
20154;SDS011;10238;49.556;10.956;2022-08-18T13:08:56;7.85;;;5.93;;
20154;SDS011;10238;49.556;10.956;2022-08-18T13:11:45;6.80;;;6.18;;
20154;SDS011;10238;49.556;10.956;2022-08-18T13:14:34;6.63;;;6.03;;
20154;SDS011;10238;49.556;10.956;2022-08-18T13:17:29;7.18;;;6.20;;
20154;SDS011;10238;49.556;10.956;2022-08-18T13:20:20;7.00;;;6.18;;
20154;SDS011;10238;49.556;10.956;2022-08-18T13:23:13;6.50;;;5.78;;
20154;SDS011;10238;49.556;10.956;2022-08-18T13:26:08;7.35;;;6.28;;
20154;SDS011;10238;49.556;10.956;2022-08-18T13:29:04;6.20;;;5.68;;
20154;SDS011;10238;49.556;10.956;2022-08-18T13:31:56;7.47;;;5.95;;
20154;SDS011;10238;49.556;10.956;2022-08-18T13:34:46;6.82;;;6.18;;
20154;SDS011;10238;49.556;10.956;2022-08-18T13:37:37;7.57;;;6.50;;
20154;SDS011;10238;49.556;10.956;2022-08-18T13:40:29;7.72;;;7.13;;
20154;SDS011;10238;49.556;10.956;2022-08-18T13:43:22;7.00;;;6.40;;
20154;SDS011;10238;49.556;10.956;2022-08-18T13:46:20;8.25;;;6.28;;
20154;SDS011;10238;49.556;10.956;2022-08-18T13:49:18;6.97;;;6.38;;
20154;SDS011;10238;49.556;10.956;2022-08-18T13:52:16;6.47;;;5.88;;
20154;SDS011;10238;49.556;10.956;2022-08-18T13:55:21;6.95;;;6.35;;
20154;SDS011;10238;49.556;10.956;2022-08-18T13:58:13;6.30;;;5.68;;
20154;SDS011;10238;49.556;10.956;2022-08-18T14:01:08;6.18;;;5.57;;
20154;SDS011;10238;49.556;10.956;2022-08-18T14:04:19;12.35;;;6.78;;
20154;SDS011;10238;49.556;10.956;2022-08-18T14:07:14;6.97;;;6.28;;
20154;SDS011;10238;49.556;10.956;2022-08-18T14:10:10;6.28;;;5.60;;
20154;SDS011;10238;49.556;10.956;2022-08-18T14:13:02;6.38;;;5.88;;
20154;SDS011;10238;49.556;10.956;2022-08-18T14:16:08;7.32;;;6.30;;
20154;SDS011;10238;49.556;10.956;2022-08-18T14:19:05;6.60;;;5.97;;
20154;SDS011;10238;49.556;10.956;2022-08-18T14:22:26;6.23;;;5.70;;
20154;SDS011;10238;49.556;10.956;2022-08-18T14:25:34;9.55;;;5.85;;
20154;SDS011;10238;49.556;10.956;2022-08-18T14:28:42;6.65;;;6.00;;
20154;SDS011;10238;49.556;10.956;2022-08-18T14:31:35;8.02;;;6.07;;
20154;SDS011;10238;49.556;10.956;2022-08-18T14:34:31;6.70;;;6.10;;
20154;SDS011;10238;49.556;10.956;2022-08-18T14:37:22;6.65;;;5.75;;
20154;SDS011;10238;49.556;10.956;2022-08-18T14:40:12;6.00;;;5.40;;
20154;SDS011;10238;49.556;10.956;2022-08-18T14:43:03;6.43;;;5.78;;
20154;SDS011;10238;49.556;10.956;2022-08-18T14:45:55;7.13;;;5.80;;
20154;SDS011;10238;49.556;10.956;2022-08-18T14:48:47;10.07;;;6.05;;
20154;SDS011;10238;49.556;10.956;2022-08-18T14:51:36;8.80;;;6.03;;
20154;SDS011;10238;49.556;10.956;2022-08-18T14:54:29;6.13;;;5.55;;
20154;SDS011;10238;49.556;10.956;2022-08-18T14:57:19;7.95;;;6.18;;
20154;SDS011;10238;49.556;10.956;2022-08-18T15:00:11;6.45;;;5.80;;
20154;SDS011;10238;49.556;10.956;2022-08-18T15:03:08;8.10;;;6.20;;
20154;SDS011;10238;49.556;10.956;2022-08-18T15:06:00;6.47;;;5.82;;
20154;SDS011;10238;49.556;10.956;2022-08-18T15:08:52;6.00;;;5.60;;
20154;SDS011;10238;49.556;10.956;2022-08-18T15:11:43;6.65;;;6.05;;
20154;SDS011;10238;49.556;10.956;2022-08-18T15:14:35;7.07;;;6.25;;
20154;SDS011;10238;49.556;10.956;2022-08-18T15:17:24;7.00;;;6.13;;
20154;SDS011;10238;49.556;10.956;2022-08-18T15:20:15;6.63;;;5.85;;
20154;SDS011;10238;49.556;10.956;2022-08-18T15:23:06;6.43;;;5.82;;
20154;SDS011;10238;49.556;10.956;2022-08-18T15:26:16;6.47;;;5.85;;
20154;SDS011;10238;49.556;10.956;2022-08-18T15:29:11;6.65;;;6.07;;
20154;SDS011;10238;49.556;10.956;2022-08-18T15:32:02;8.07;;;6.75;;
20154;SDS011;10238;49.556;10.956;2022-08-18T15:34:56;6.25;;;5.65;;
20154;SDS011;10238;49.556;10.956;2022-08-18T15:37:47;6.22;;;5.72;;
20154;SDS011;10238;49.556;10.956;2022-08-18T15:43:43;6.85;;;5.68;;
20154;SDS011;10238;49.556;10.956;2022-08-18T15:46:35;6.43;;;5.93;;
20154;SDS011;10238;49.556;10.956;2022-08-18T15:49:26;7.50;;;6.63;;
20154;SDS011;10238;49.556;10.956;2022-08-18T15:52:19;7.82;;;6.50;;
20154;SDS011;10238;49.556;10.956;2022-08-18T15:55:12;7.50;;;6.40;;
20154;SDS011;10238;49.556;10.956;2022-08-18T15:58:02;7.60;;;6.18;;
20154;SDS011;10238;49.556;10.956;2022-08-18T16:00:58;8.43;;;5.82;;
20154;SDS011;10238;49.556;10.956;2022-08-18T16:04:07;7.53;;;5.85;;
20154;SDS011;10238;49.556;10.956;2022-08-18T16:06:56;6.60;;;5.93;;
20154;SDS011;10238;49.556;10.956;2022-08-18T16:09:46;6.72;;;5.95;;
20154;SDS011;10238;49.556;10.956;2022-08-18T16:12:36;7.10;;;6.40;;
20154;SDS011;10238;49.556;10.956;2022-08-18T16:15:34;6.20;;;5.60;;
20154;SDS011;10238;49.556;10.956;2022-08-18T16:18:26;7.40;;;6.70;;
20154;SDS011;10238;49.556;10.956;2022-08-18T16:21:16;8.55;;;6.65;;
20154;SDS011;10238;49.556;10.956;2022-08-18T16:24:09;8.18;;;6.65;;
20154;SDS011;10238;49.556;10.956;2022-08-18T16:27:01;7.38;;;6.68;;
20154;SDS011;10238;49.556;10.956;2022-08-18T16:29:53;9.82;;;6.45;;
20154;SDS011;10238;49.556;10.956;2022-08-18T16:32:44;7.30;;;6.70;;
20154;SDS011;10238;49.556;10.956;2022-08-18T16:35:34;8.33;;;6.63;;
20154;SDS011;10238;49.556;10.956;2022-08-18T16:38:24;10.07;;;7.15;;
20154;SDS011;10238;49.556;10.956;2022-08-18T16:41:15;8.38;;;6.70;;
20154;SDS011;10238;49.556;10.956;2022-08-18T16:44:05;7.50;;;6.68;;
20154;SDS011;10238;49.556;10.956;2022-08-18T16:46:54;8.63;;;6.65;;
20154;SDS011;10238;49.556;10.956;2022-08-18T16:49:45;7.65;;;6.85;;
20154;SDS011;10238;49.556;10.956;2022-08-18T16:52:37;7.40;;;6.70;;
20154;SDS011;10238;49.556;10.956;2022-08-18T16:55:27;9.55;;;7.25;;
20154;SDS011;10238;49.556;10.956;2022-08-18T16:58:17;7.78;;;6.95;;
20154;SDS011;10238;49.556;10.956;2022-08-18T17:01:24;8.90;;;6.95;;
20154;SDS011;10238;49.556;10.956;2022-08-18T17:04:35;7.65;;;6.63;;
20154;SDS011;10238;49.556;10.956;2022-08-18T17:07:26;8.02;;;6.63;;
20154;SDS011;10238;49.556;10.956;2022-08-18T17:10:17;7.80;;;6.68;;
20154;SDS011;10238;49.556;10.956;2022-08-18T17:13:13;7.20;;;6.50;;
20154;SDS011;10238;49.556;10.956;2022-08-18T17:16:18;8.70;;;6.45;;
20154;SDS011;10238;49.556;10.956;2022-08-18T17:19:14;6.95;;;6.25;;
20154;SDS011;10238;49.556;10.956;2022-08-18T17:22:03;7.35;;;6.63;;
20154;SDS011;10238;49.556;10.956;2022-08-18T17:24:56;9.60;;;6.97;;
20154;SDS011;10238;49.556;10.956;2022-08-18T17:27:50;7.00;;;6.40;;
20154;SDS011;10238;49.556;10.956;2022-08-18T17:30:41;9.85;;;7.35;;
20154;SDS011;10238;49.556;10.956;2022-08-18T17:33:37;8.18;;;7.38;;
20154;SDS011;10238;49.556;10.956;2022-08-18T17:36:33;7.53;;;6.60;;
20154;SDS011;10238;49.556;10.956;2022-08-18T17:39:30;7.95;;;6.43;;
20154;SDS011;10238;49.556;10.956;2022-08-18T17:42:26;6.72;;;5.97;;
20154;SDS011;10238;49.556;10.956;2022-08-18T17:45:19;9.80;;;6.63;;
20154;SDS011;10238;49.556;10.956;2022-08-18T17:48:11;7.15;;;6.45;;
20154;SDS011;10238;49.556;10.956;2022-08-18T17:51:07;11.02;;;7.18;;
20154;SDS011;10238;49.556;10.956;2022-08-18T17:54:21;8.30;;;6.78;;
20154;SDS011;10238;49.556;10.956;2022-08-18T17:57:21;8.15;;;6.70;;
20154;SDS011;10238;49.556;10.956;2022-08-18T18:00:16;10.77;;;6.80;;
20154;SDS011;10238;49.556;10.956;2022-08-18T18:03:06;8.07;;;6.00;;
20154;SDS011;10238;49.556;10.956;2022-08-18T18:06:01;6.47;;;5.88;;